Guymon, OK

7:12 AM CST en Febrero 01, 2015 (GMT -0600)
Guymon Municipal | Change Station
CLOSE
Current Station
Aeropuerto
Location: Guymon,
Altura: 3123 ft
Estaciones meteorológicas cercanas

Alt 3123 ft 36.68 °N, 101.51 °W | Updated 19 minutes ago

Overcast
Nublado
32 ° F
Sensación térmica 17 ° F
N
34
Viento Variable Viento desde Norte
Gusts 44 mph

Hoy
Alta -- | Baja -- ° F
--% Posibilidad de precipitaciones
Ayer
Alta -- | Baja -- ° F
Precip. -- pul
7:47 AM 6:11 PM
Gibosa creciente, 95% visible
Presión 30.03 pul
Visibilidad 10.0 Millas
Nubes Nublado 2100 ft
Vientos helados 17 ° F
Punto de rocío 24 ° F
Humedad 73%
Precipitaciones 0.00 pul
Espesor de la nieve No disponible.
UV 0 de una escala de 12
Polen 1.70 de una escala de 12
Calidad del aire No disponible.
Flu Activity No disponible.
METAR KGUY 011253Z AUTO 35030G38KT 10SM OVC021 00/M04 A3002 RMK AO2 PK WND 35038/1249 SLP168 T00001044

More Conditions Fewer Conditions

Presión 30.03 pul
Visibilidad 10.0 Millas
Nubes Nublado 2100 ft
Vientos helados 17 ° F
Punto de rocío 24 ° F
Humedad 73%
Precipitaciones 0.00 pul
Espesor de la nieve No disponible.
UV 0 de una escala de 12
Polen 1.70 de una escala de 12
Calidad del aire No disponible.
Flu Activity No disponible.
METAR KGUY 011253Z AUTO 35030G38KT 10SM OVC021 00/M04 A3002 RMK AO2 PK WND 35038/1249 SLP168 T00001044

More Conditions Fewer Conditions

10-Day Weather Forecast

Almanac

Astronomía

Feb. 01, 2015 Salida Puesta
Hora real
Crepúsculo civil
Crepúsculo náutico
Crepúsculo astronómico
Luna
Horas de luz
Horas de luz
Tomorrow will be .
, % of the Moon is Illuminated

Extremos de hoy

Máximos del estado Bajos del estado

Community

WunderPhotos

Upload Photos

1,792,359 ¡fotos cargadas!

WunderBlogs® & News

Nearby

Calidad del aire

  Calidad del aire Índice AQ Contaminante
Not available.

Grosos de nieve

Estación Profundido Altura

Actividad de terremotos

Ciudad Distance Mag. Tiempo y dato
Magnitud mínima muestra es 2,5.

Temperaturas de aguas costeras

Lugar Temperatura

Estaciones meteorológicas cercanas